sensor_id;sensor_type;location;lat;lon;timestamp;pressure;altitude;pressure_sealevel;temperature;humidity
42671;BME280;28283;55.426;37.756;2022-11-20T00:00:01;99362.50;;;-2.41;89.17
42671;BME280;28283;55.426;37.756;2022-11-20T00:05:01;99358.91;;;-2.51;88.54
42671;BME280;28283;55.426;37.756;2022-11-20T00:10:02;99358.91;;;-2.40;88.97
42671;BME280;28283;55.426;37.756;2022-11-20T00:15:03;99361.78;;;-2.54;88.58
42671;BME280;28283;55.426;37.756;2022-11-20T00:20:05;99369.19;;;-2.48;89.05
42671;BME280;28283;55.426;37.756;2022-11-20T00:25:05;99370.16;;;-2.38;89.06
42671;BME280;28283;55.426;37.756;2022-11-20T00:30:06;99362.16;;;-2.47;88.33
42671;BME280;28283;55.426;37.756;2022-11-20T00:35:07;99344.66;;;-2.60;89.17
42671;BME280;28283;55.426;37.756;2022-11-20T00:40:08;99371.09;;;-2.39;89.01
42671;BME280;28283;55.426;37.756;2022-11-20T00:45:10;99320.94;;;-2.82;88.20
42671;BME280;28283;55.426;37.756;2022-11-20T00:50:10;99370.38;;;-2.41;88.71
42671;BME280;28283;55.426;37.756;2022-11-20T00:55:11;99359.84;;;-2.52;88.60
42671;BME280;28283;55.426;37.756;2022-11-20T01:00:11;99366.81;;;-2.40;88.99
42671;BME280;28283;55.426;37.756;2022-11-20T01:05:12;99374.34;;;-2.46;88.80
42671;BME280;28283;55.426;37.756;2022-11-20T01:10:12;99370.06;;;-2.36;89.47
42671;BME280;28283;55.426;37.756;2022-11-20T01:15:13;99368.47;;;-2.50;88.65
42671;BME280;28283;55.426;37.756;2022-11-20T01:20:13;99367.66;;;-2.39;89.47
42671;BME280;28283;55.426;37.756;2022-11-20T01:25:14;99359.13;;;-2.54;88.21
42671;BME280;28283;55.426;37.756;2022-11-20T01:30:15;99374.59;;;-2.38;88.60
42671;BME280;28283;55.426;37.756;2022-11-20T01:35:15;99375.31;;;-2.47;88.31
42671;BME280;28283;55.426;37.756;2022-11-20T01:40:16;99380.44;;;-2.46;88.83
42671;BME280;28283;55.426;37.756;2022-11-20T01:50:55;99382.94;;;-2.44;88.57
42671;BME280;28283;55.426;37.756;2022-11-20T01:55:57;99397.91;;;-2.45;89.01
42671;BME280;28283;55.426;37.756;2022-11-20T02:00:59;99411.06;;;-2.45;88.54
42671;BME280;28283;55.426;37.756;2022-11-20T02:11:19;99395.88;;;-2.53;88.45
42671;BME280;28283;55.426;37.756;2022-11-20T02:16:24;99417.81;;;-2.29;88.77
42671;BME280;28283;55.426;37.756;2022-11-20T02:27:10;99398.63;;;-2.54;88.34
42671;BME280;28283;55.426;37.756;2022-11-20T02:32:24;99297.47;;;-3.32;88.44
42671;BME280;28283;55.426;37.756;2022-11-20T02:37:30;99413.09;;;-2.48;88.12
42671;BME280;28283;55.426;37.756;2022-11-20T02:42:33;99431.66;;;-2.39;88.27
42671;BME280;28283;55.426;37.756;2022-11-20T02:47:33;99431.91;;;-2.42;88.67
42671;BME280;28283;55.426;37.756;2022-11-20T02:52:34;99435.88;;;-2.36;87.90
42671;BME280;28283;55.426;37.756;2022-11-20T02:57:35;99416.66;;;-2.50;88.38
42671;BME280;28283;55.426;37.756;2022-11-20T03:02:35;99435.16;;;-2.27;88.86
42671;BME280;28283;55.426;37.756;2022-11-20T03:07:36;99438.13;;;-2.43;87.87
42671;BME280;28283;55.426;37.756;2022-11-20T03:12:37;99420.72;;;-2.57;87.55
42671;BME280;28283;55.426;37.756;2022-11-20T03:17:37;99443.66;;;-2.35;87.93
42671;BME280;28283;55.426;37.756;2022-11-20T03:22:38;99434.50;;;-2.53;88.11
42671;BME280;28283;55.426;37.756;2022-11-20T03:27:38;99434.03;;;-2.58;88.11
42671;BME280;28283;55.426;37.756;2022-11-20T03:32:39;99445.38;;;-2.58;87.99
42671;BME280;28283;55.426;37.756;2022-11-20T03:37:40;99464.41;;;-2.54;87.50
42671;BME280;28283;55.426;37.756;2022-11-20T03:42:40;99468.25;;;-2.47;87.80
42671;BME280;28283;55.426;37.756;2022-11-20T03:47:47;99467.63;;;-2.62;87.22
42671;BME280;28283;55.426;37.756;2022-11-20T03:52:47;99470.41;;;-2.52;88.22
42671;BME280;28283;55.426;37.756;2022-11-20T03:57:48;99472.03;;;-2.62;87.20
42671;BME280;28283;55.426;37.756;2022-11-20T04:02:48;99477.34;;;-2.51;88.04
42671;BME280;28283;55.426;37.756;2022-11-20T04:07:49;99477.75;;;-2.69;87.12
42671;BME280;28283;55.426;37.756;2022-11-20T04:12:50;99488.59;;;-2.49;87.77
42671;BME280;28283;55.426;37.756;2022-11-20T04:17:50;99467.44;;;-2.72;87.37
42671;BME280;28283;55.426;37.756;2022-11-20T04:22:52;99500.06;;;-2.50;87.03
42671;BME280;28283;55.426;37.756;2022-11-20T04:27:54;99475.56;;;-2.75;87.19
42671;BME280;28283;55.426;37.756;2022-11-20T04:32:55;99480.97;;;-2.76;87.30
42671;BME280;28283;55.426;37.756;2022-11-20T04:37:55;99505.44;;;-2.52;87.02
42671;BME280;28283;55.426;37.756;2022-11-20T04:42:56;99496.41;;;-2.72;86.49
42671;BME280;28283;55.426;37.756;2022-11-20T04:47:56;99518.72;;;-2.53;87.08
42671;BME280;28283;55.426;37.756;2022-11-20T04:52:57;99526.31;;;-2.73;86.85
42671;BME280;28283;55.426;37.756;2022-11-20T04:57:58;99534.69;;;-2.67;86.52
42671;BME280;28283;55.426;37.756;2022-11-20T05:02:58;99549.81;;;-2.58;86.51
42671;BME280;28283;55.426;37.756;2022-11-20T05:07:59;99533.78;;;-2.79;86.27
42671;BME280;28283;55.426;37.756;2022-11-20T05:13:00;99563.63;;;-2.67;86.95
42671;BME280;28283;55.426;37.756;2022-11-20T05:18:01;99565.38;;;-2.55;86.46
42671;BME280;28283;55.426;37.756;2022-11-20T05:23:02;99574.66;;;-2.62;86.69
42671;BME280;28283;55.426;37.756;2022-11-20T05:28:03;99547.06;;;-2.81;86.52
42671;BME280;28283;55.426;37.756;2022-11-20T05:33:03;99603.22;;;-2.45;86.48
42671;BME280;28283;55.426;37.756;2022-11-20T05:38:04;99599.81;;;-2.58;85.91
42671;BME280;28283;55.426;37.756;2022-11-20T05:43:05;99584.91;;;-2.71;86.25
42671;BME280;28283;55.426;37.756;2022-11-20T05:48:05;99619.06;;;-2.58;85.98
42671;BME280;28283;55.426;37.756;2022-11-20T05:53:06;99610.19;;;-2.44;86.03
42671;BME280;28283;55.426;37.756;2022-11-20T05:58:07;99626.50;;;-2.52;86.24
42671;BME280;28283;55.426;37.756;2022-11-20T06:03:07;99618.72;;;-2.40;86.36
42671;BME280;28283;55.426;37.756;2022-11-20T06:08:08;99616.88;;;-2.64;86.03
42671;BME280;28283;55.426;37.756;2022-11-20T06:13:08;99655.31;;;-2.37;85.57
42671;BME280;28283;55.426;37.756;2022-11-20T06:18:09;99647.56;;;-2.52;85.61
42671;BME280;28283;55.426;37.756;2022-11-20T06:23:10;99663.78;;;-2.45;85.46
42671;BME280;28283;55.426;37.756;2022-11-20T06:28:10;99672.34;;;-2.30;86.26
42671;BME280;28283;55.426;37.756;2022-11-20T06:33:11;99601.22;;;-2.78;85.38
42671;BME280;28283;55.426;37.756;2022-11-20T06:38:12;99672.59;;;-2.33;85.54
42671;BME280;28283;55.426;37.756;2022-11-20T06:43:13;99669.09;;;-2.34;85.71
42671;BME280;28283;55.426;37.756;2022-11-20T06:48:14;99653.03;;;-2.42;85.69
42671;BME280;28283;55.426;37.756;2022-11-20T06:53:14;99652.47;;;-2.34;85.34
42671;BME280;28283;55.426;37.756;2022-11-20T06:58:16;99631.97;;;-2.42;85.39
42671;BME280;28283;55.426;37.756;2022-11-20T07:03:16;99661.56;;;-2.14;85.16
42671;BME280;28283;55.426;37.756;2022-11-20T07:08:17;99672.75;;;-2.23;85.43
42671;BME280;28283;55.426;37.756;2022-11-20T07:13:18;99595.66;;;-2.74;85.04
42671;BME280;28283;55.426;37.756;2022-11-20T07:18:21;99669.41;;;-2.25;85.31
42671;BME280;28283;55.426;37.756;2022-11-20T07:23:25;99658.88;;;-2.25;85.27
42671;BME280;28283;55.426;37.756;2022-11-20T07:28:25;99639.34;;;-2.47;84.89
42671;BME280;28283;55.426;37.756;2022-11-20T07:33:26;99580.94;;;-2.76;85.03
42671;BME280;28283;55.426;37.756;2022-11-20T07:38:27;99630.75;;;-2.49;85.03
42671;BME280;28283;55.426;37.756;2022-11-20T07:43:28;99685.03;;;-2.11;85.14
42671;BME280;28283;55.426;37.756;2022-11-20T07:48:29;99664.13;;;-2.25;84.94
42671;BME280;28283;55.426;37.756;2022-11-20T07:53:29;99705.47;;;-1.90;85.06
42671;BME280;28283;55.426;37.756;2022-11-20T07:58:32;99683.13;;;-2.09;84.88
42671;BME280;28283;55.426;37.756;2022-11-20T08:03:34;99702.28;;;-2.07;84.42
42671;BME280;28283;55.426;37.756;2022-11-20T08:08:37;99709.88;;;-2.02;84.85
42671;BME280;28283;55.426;37.756;2022-11-20T08:13:39;99715.50;;;-1.96;84.96
42671;BME280;28283;55.426;37.756;2022-11-20T08:18:58;99719.22;;;-1.98;84.60
42671;BME280;28283;55.426;37.756;2022-11-20T08:23:59;99704.94;;;-2.07;83.98
42671;BME280;28283;55.426;37.756;2022-11-20T08:29:00;99696.09;;;-2.06;84.39
42671;BME280;28283;55.426;37.756;2022-11-20T08:34:00;99730.69;;;-1.86;84.32
42671;BME280;28283;55.426;37.756;2022-11-20T08:39:02;99721.88;;;-1.74;84.72
42671;BME280;28283;55.426;37.756;2022-11-20T08:44:05;99729.88;;;-1.76;84.27
42671;BME280;28283;55.426;37.756;2022-11-20T08:49:09;99763.56;;;-1.68;84.07
42671;BME280;28283;55.426;37.756;2022-11-20T08:54:09;99754.75;;;-1.80;84.04
42671;BME280;28283;55.426;37.756;2022-11-20T08:59:10;99758.69;;;-1.85;83.39
42671;BME280;28283;55.426;37.756;2022-11-20T09:04:11;99770.94;;;-1.84;84.49
42671;BME280;28283;55.426;37.756;2022-11-20T09:09:11;99797.84;;;-1.68;84.35
42671;BME280;28283;55.426;37.756;2022-11-20T09:14:12;99782.50;;;-1.74;83.91
42671;BME280;28283;55.426;37.756;2022-11-20T09:19:13;99790.34;;;-1.61;82.96
42671;BME280;28283;55.426;37.756;2022-11-20T09:24:17;99756.66;;;-2.06;82.78
42671;BME280;28283;55.426;37.756;2022-11-20T09:29:17;99800.22;;;-1.89;83.70
42671;BME280;28283;55.426;37.756;2022-11-20T09:34:18;99811.94;;;-1.93;83.36
42671;BME280;28283;55.426;37.756;2022-11-20T09:39:19;99814.47;;;-1.92;84.26
42671;BME280;28283;55.426;37.756;2022-11-20T09:44:52;99832.41;;;-1.97;85.19
42671;BME280;28283;55.426;37.756;2022-11-20T09:55:25;99810.75;;;-2.13;84.38
42671;BME280;28283;55.426;37.756;2022-11-20T10:00:27;99806.94;;;-2.09;84.81
42671;BME280;28283;55.426;37.756;2022-11-20T10:05:47;99836.22;;;-2.01;85.09
42671;BME280;28283;55.426;37.756;2022-11-20T10:11:04;99824.81;;;-2.01;85.41
42671;BME280;28283;55.426;37.756;2022-11-20T10:16:27;99845.06;;;-2.02;85.87
42671;BME280;28283;55.426;37.756;2022-11-20T10:32:18;99798.41;;;-1.76;82.68
42671;BME280;28283;55.426;37.756;2022-11-20T10:37:25;99867.75;;;-1.75;81.93
42671;BME280;28283;55.426;37.756;2022-11-20T10:42:45;99845.75;;;-1.87;81.26
42671;BME280;28283;55.426;37.756;2022-11-20T10:47:47;99848.00;;;-1.94;81.72
42671;BME280;28283;55.426;37.756;2022-11-20T10:53:05;99877.38;;;-1.74;81.18
42671;BME280;28283;55.426;37.756;2022-11-20T11:03:41;99872.81;;;-1.85;81.19
42671;BME280;28283;55.426;37.756;2022-11-20T11:08:44;99820.66;;;-2.29;80.08
42671;BME280;28283;55.426;37.756;2022-11-20T11:13:48;99871.84;;;-2.08;80.58
42671;BME280;28283;55.426;37.756;2022-11-20T11:18:49;99879.50;;;-2.05;80.03
42671;BME280;28283;55.426;37.756;2022-11-20T11:24:01;99830.03;;;-2.38;80.64
42671;BME280;28283;55.426;37.756;2022-11-20T11:29:03;99858.78;;;-2.35;80.83
42671;BME280;28283;55.426;37.756;2022-11-20T11:34:07;99880.25;;;-2.03;80.25
42671;BME280;28283;55.426;37.756;2022-11-20T11:39:14;99815.19;;;-2.78;79.84
42671;BME280;28283;55.426;37.756;2022-11-20T11:44:21;99893.84;;;-1.96;79.52
42671;BME280;28283;55.426;37.756;2022-11-20T11:49:41;99885.19;;;-1.98;77.64
42671;BME280;28283;55.426;37.756;2022-11-20T11:54:43;99900.16;;;-1.99;78.11
42671;BME280;28283;55.426;37.756;2022-11-20T12:00:24;99882.03;;;-2.03;78.47
42671;BME280;28283;55.426;37.756;2022-11-20T12:05:29;99895.22;;;-2.16;79.05
42671;BME280;28283;55.426;37.756;2022-11-20T12:10:45;99905.66;;;-2.27;78.97
42671;BME280;28283;55.426;37.756;2022-11-20T12:15:47;99830.56;;;-2.59;78.19
42671;BME280;28283;55.426;37.756;2022-11-20T12:26:08;99911.31;;;-2.21;78.07
42671;BME280;28283;55.426;37.756;2022-11-20T12:36:45;99898.50;;;-2.13;77.93
42671;BME280;28283;55.426;37.756;2022-11-20T12:57:54;99910.19;;;-2.29;79.21
42671;BME280;28283;55.426;37.756;2022-11-20T13:08:21;99900.91;;;-2.35;79.23
42671;BME280;28283;55.426;37.756;2022-11-20T13:19:02;99941.88;;;-2.44;79.43
42671;BME280;28283;55.426;37.756;2022-11-20T13:29:19;99909.47;;;-2.84;79.60
42671;BME280;28283;55.426;37.756;2022-11-20T13:34:23;99947.78;;;-2.40;79.22
42671;BME280;28283;55.426;37.756;2022-11-20T13:39:36;99912.84;;;-2.82;79.78
42671;BME280;28283;55.426;37.756;2022-11-20T13:44:50;99909.09;;;-3.05;80.47
42671;BME280;28283;55.426;37.756;2022-11-20T13:49:57;99894.88;;;-3.16;80.83
42671;BME280;28283;55.426;37.756;2022-11-20T13:55:14;99950.69;;;-2.98;81.38
42671;BME280;28283;55.426;37.756;2022-11-20T14:00:19;99904.19;;;-2.97;80.10
42671;BME280;28283;55.426;37.756;2022-11-20T14:05:24;99973.06;;;-2.78;80.99
42671;BME280;28283;55.426;37.756;2022-11-20T14:10:45;99978.47;;;-2.66;80.52
42671;BME280;28283;55.426;37.756;2022-11-20T14:15:45;99968.59;;;-2.90;80.91
42671;BME280;28283;55.426;37.756;2022-11-20T14:20:45;99978.63;;;-2.82;80.99
42671;BME280;28283;55.426;37.756;2022-11-20T14:25:47;99991.44;;;-2.91;81.77
42671;BME280;28283;55.426;37.756;2022-11-20T14:30:51;99988.97;;;-2.79;80.73
42671;BME280;28283;55.426;37.756;2022-11-20T14:35:54;99996.94;;;-2.81;81.64
42671;BME280;28283;55.426;37.756;2022-11-20T14:41:06;100007.06;;;-2.75;80.79
42671;BME280;28283;55.426;37.756;2022-11-20T14:46:18;100007.38;;;-3.07;81.76
42671;BME280;28283;55.426;37.756;2022-11-20T14:57:24;99999.34;;;-2.91;81.36
42671;BME280;28283;55.426;37.756;2022-11-20T15:02:25;99991.22;;;-3.15;82.46
42671;BME280;28283;55.426;37.756;2022-11-20T15:07:27;99997.41;;;-3.01;82.82
42671;BME280;28283;55.426;37.756;2022-11-20T15:12:30;100004.75;;;-3.07;81.96
42671;BME280;28283;55.426;37.756;2022-11-20T15:17:32;99994.38;;;-2.95;81.93
42671;BME280;28283;55.426;37.756;2022-11-20T15:22:35;99976.72;;;-3.08;82.03
42671;BME280;28283;55.426;37.756;2022-11-20T15:27:35;99989.50;;;-2.74;81.18
42671;BME280;28283;55.426;37.756;2022-11-20T15:32:36;99979.16;;;-2.77;81.33
42671;BME280;28283;55.426;37.756;2022-11-20T15:37:37;99987.34;;;-2.82;81.19
42671;BME280;28283;55.426;37.756;2022-11-20T15:42:37;99958.56;;;-3.25;81.17
42671;BME280;28283;55.426;37.756;2022-11-20T15:47:38;99979.03;;;-2.89;80.98
42671;BME280;28283;55.426;37.756;2022-11-20T15:52:38;99943.88;;;-3.15;81.24
42671;BME280;28283;55.426;37.756;2022-11-20T15:57:39;99957.72;;;-2.98;81.97
42671;BME280;28283;55.426;37.756;2022-11-20T16:02:40;99973.47;;;-2.84;81.01
42671;BME280;28283;55.426;37.756;2022-11-20T16:07:40;99992.63;;;-2.82;80.37
42671;BME280;28283;55.426;37.756;2022-11-20T16:12:45;99976.69;;;-3.20;81.81
42671;BME280;28283;55.426;37.756;2022-11-20T16:18:04;99922.28;;;-3.47;82.14
42671;BME280;28283;55.426;37.756;2022-11-20T16:23:14;99991.31;;;-3.16;82.22
42671;BME280;28283;55.426;37.756;2022-11-20T16:28:30;99992.59;;;-3.09;81.71
42671;BME280;28283;55.426;37.756;2022-11-20T16:33:30;99995.94;;;-2.93;82.00
42671;BME280;28283;55.426;37.756;2022-11-20T16:38:31;99974.88;;;-3.20;82.21
42671;BME280;28283;55.426;37.756;2022-11-20T16:43:31;99970.28;;;-3.16;82.66
42671;BME280;28283;55.426;37.756;2022-11-20T16:48:35;99939.81;;;-3.33;82.68
42671;BME280;28283;55.426;37.756;2022-11-20T16:53:40;99981.47;;;-3.27;82.60
42671;BME280;28283;55.426;37.756;2022-11-20T16:58:46;99944.88;;;-3.30;82.96
42671;BME280;28283;55.426;37.756;2022-11-20T17:04:04;99910.53;;;-3.41;83.83
42671;BME280;28283;55.426;37.756;2022-11-20T17:09:12;99898.91;;;-3.37;83.13
42671;BME280;28283;55.426;37.756;2022-11-20T17:14:13;99950.19;;;-3.17;82.38
42671;BME280;28283;55.426;37.756;2022-11-20T17:19:13;99966.88;;;-3.04;83.17
42671;BME280;28283;55.426;37.756;2022-11-20T17:24:14;99967.00;;;-3.20;82.78
42671;BME280;28283;55.426;37.756;2022-11-20T17:29:17;99962.00;;;-3.10;82.33
42671;BME280;28283;55.426;37.756;2022-11-20T17:34:20;99965.69;;;-3.27;81.80
42671;BME280;28283;55.426;37.756;2022-11-20T17:39:22;99986.22;;;-3.05;82.45
42671;BME280;28283;55.426;37.756;2022-11-20T17:44:22;99994.91;;;-2.90;81.55
42671;BME280;28283;55.426;37.756;2022-11-20T17:49:23;99961.09;;;-3.23;81.62
42671;BME280;28283;55.426;37.756;2022-11-20T17:54:23;99988.41;;;-3.12;82.40
42671;BME280;28283;55.426;37.756;2022-11-20T17:59:24;99985.63;;;-3.23;82.30
42671;BME280;28283;55.426;37.756;2022-11-20T18:04:24;99991.69;;;-3.08;81.68
42671;BME280;28283;55.426;37.756;2022-11-20T18:09:27;99974.00;;;-3.33;82.48
42671;BME280;28283;55.426;37.756;2022-11-20T18:14:27;99978.16;;;-3.16;83.11
42671;BME280;28283;55.426;37.756;2022-11-20T18:19:43;99998.66;;;-3.21;82.66
42671;BME280;28283;55.426;37.756;2022-11-20T18:24:48;99960.28;;;-3.38;82.78
42671;BME280;28283;55.426;37.756;2022-11-20T18:29:49;99989.28;;;-3.26;83.10
42671;BME280;28283;55.426;37.756;2022-11-20T18:35:13;99983.34;;;-3.29;83.52
42671;BME280;28283;55.426;37.756;2022-11-20T18:40:13;99985.81;;;-3.26;83.45
42671;BME280;28283;55.426;37.756;2022-11-20T18:45:16;99986.91;;;-3.16;83.44
42671;BME280;28283;55.426;37.756;2022-11-20T18:50:16;99982.44;;;-3.01;83.74
42671;BME280;28283;55.426;37.756;2022-11-20T18:55:18;99974.75;;;-3.04;83.84
42671;BME280;28283;55.426;37.756;2022-11-20T19:00:19;99970.91;;;-2.85;83.97
42671;BME280;28283;55.426;37.756;2022-11-20T19:05:27;99962.94;;;-2.84;84.11
42671;BME280;28283;55.426;37.756;2022-11-20T19:10:31;99968.69;;;-2.64;83.93
42671;BME280;28283;55.426;37.756;2022-11-20T19:15:34;99894.75;;;-3.14;84.03
42671;BME280;28283;55.426;37.756;2022-11-20T19:20:39;99966.78;;;-2.62;83.91
42671;BME280;28283;55.426;37.756;2022-11-20T19:25:46;99934.00;;;-2.84;83.86
42671;BME280;28283;55.426;37.756;2022-11-20T19:30:50;99879.53;;;-3.09;83.86
42671;BME280;28283;55.426;37.756;2022-11-20T19:35:51;99926.19;;;-2.85;83.90
42671;BME280;28283;55.426;37.756;2022-11-20T19:40:51;99955.34;;;-2.48;84.34
42671;BME280;28283;55.426;37.756;2022-11-20T19:45:55;99926.31;;;-2.87;84.28
42671;BME280;28283;55.426;37.756;2022-11-20T19:50:56;99968.38;;;-2.60;84.43
42671;BME280;28283;55.426;37.756;2022-11-20T19:55:57;99963.03;;;-2.45;84.69
42671;BME280;28283;55.426;37.756;2022-11-20T20:01:13;99971.25;;;-2.50;84.74
42671;BME280;28283;55.426;37.756;2022-11-20T20:06:16;99965.66;;;-2.58;84.75
42671;BME280;28283;55.426;37.756;2022-11-20T20:11:18;100012.31;;;-2.47;85.19
42671;BME280;28283;55.426;37.756;2022-11-20T20:16:24;99997.13;;;-2.57;84.91
42671;BME280;28283;55.426;37.756;2022-11-20T20:21:32;99917.44;;;-2.99;84.96
42671;BME280;28283;55.426;37.756;2022-11-20T20:26:44;99951.75;;;-2.88;85.13
42671;BME280;28283;55.426;37.756;2022-11-20T20:31:46;99903.75;;;-3.04;85.04
42671;BME280;28283;55.426;37.756;2022-11-20T20:36:47;99992.19;;;-2.48;84.53
42671;BME280;28283;55.426;37.756;2022-11-20T20:41:48;100000.94;;;-2.35;85.02
42671;BME280;28283;55.426;37.756;2022-11-20T20:46:50;99922.50;;;-2.96;84.51
42671;BME280;28283;55.426;37.756;2022-11-20T20:51:55;99895.44;;;-3.25;84.47
42671;BME280;28283;55.426;37.756;2022-11-20T20:56:55;100014.88;;;-2.33;84.95
42671;BME280;28283;55.426;37.756;2022-11-20T21:01:56;99975.84;;;-2.66;84.25
42671;BME280;28283;55.426;37.756;2022-11-20T21:06:57;100002.91;;;-2.52;84.61
42671;BME280;28283;55.426;37.756;2022-11-20T21:12:00;99991.44;;;-2.63;84.73
42671;BME280;28283;55.426;37.756;2022-11-20T21:17:06;100010.09;;;-2.54;84.69
42671;BME280;28283;55.426;37.756;2022-11-20T21:22:10;99962.22;;;-2.73;84.71
42671;BME280;28283;55.426;37.756;2022-11-20T21:27:11;99988.69;;;-2.62;84.53
42671;BME280;28283;55.426;37.756;2022-11-20T21:32:11;99999.25;;;-2.49;84.37
42671;BME280;28283;55.426;37.756;2022-11-20T21:37:12;99978.47;;;-2.66;84.50
42671;BME280;28283;55.426;37.756;2022-11-20T21:42:12;99994.19;;;-2.52;84.20
42671;BME280;28283;55.426;37.756;2022-11-20T21:47:14;99990.38;;;-2.61;84.67
42671;BME280;28283;55.426;37.756;2022-11-20T21:52:14;99985.38;;;-2.51;84.79
42671;BME280;28283;55.426;37.756;2022-11-20T21:57:18;99967.72;;;-2.76;84.00
42671;BME280;28283;55.426;37.756;2022-11-20T22:02:24;99981.09;;;-2.66;84.08
42671;BME280;28283;55.426;37.756;2022-11-20T22:07:27;99969.47;;;-2.77;84.38
42671;BME280;28283;55.426;37.756;2022-11-20T22:12:31;99967.91;;;-2.79;84.47
42671;BME280;28283;55.426;37.756;2022-11-20T22:17:35;99973.03;;;-2.91;84.34
42671;BME280;28283;55.426;37.756;2022-11-20T22:22:58;99983.25;;;-2.86;84.63
42671;BME280;28283;55.426;37.756;2022-11-20T22:27:58;99983.88;;;-2.82;84.46
42671;BME280;28283;55.426;37.756;2022-11-20T22:32:59;99981.28;;;-2.70;84.95
42671;BME280;28283;55.426;37.756;2022-11-20T22:38:00;99963.25;;;-2.89;85.00
42671;BME280;28283;55.426;37.756;2022-11-20T22:43:00;99974.13;;;-2.67;84.66
42671;BME280;28283;55.426;37.756;2022-11-20T22:48:04;99945.22;;;-2.95;84.90
42671;BME280;28283;55.426;37.756;2022-11-20T22:53:05;99889.47;;;-3.27;84.56
42671;BME280;28283;55.426;37.756;2022-11-20T22:58:05;99970.91;;;-2.58;85.04
42671;BME280;28283;55.426;37.756;2022-11-20T23:03:08;99958.03;;;-2.76;84.13
42671;BME280;28283;55.426;37.756;2022-11-20T23:08:08;99941.88;;;-2.84;84.52
42671;BME280;28283;55.426;37.756;2022-11-20T23:13:09;99947.72;;;-2.66;83.88
42671;BME280;28283;55.426;37.756;2022-11-20T23:18:09;99901.22;;;-3.05;84.23
42671;BME280;28283;55.426;37.756;2022-11-20T23:23:10;99946.16;;;-2.69;84.37
42671;BME280;28283;55.426;37.756;2022-11-20T23:28:11;99936.63;;;-2.84;83.81
42671;BME280;28283;55.426;37.756;2022-11-20T23:33:12;99948.25;;;-2.74;84.23
42671;BME280;28283;55.426;37.756;2022-11-20T23:38:15;99929.06;;;-2.89;83.76
42671;BME280;28283;55.426;37.756;2022-11-20T23:43:20;99895.13;;;-3.06;84.15
42671;BME280;28283;55.426;37.756;2022-11-20T23:48:23;99938.38;;;-2.97;83.78
42671;BME280;28283;55.426;37.756;2022-11-20T23:53:24;99936.78;;;-3.00;84.05
42671;BME280;28283;55.426;37.756;2022-11-20T23:58:32;99952.97;;;-2.79;84.47
